createdAt,value
2017-09-05T00:01:36.170Z,70.73
2017-09-05T00:04:03.058Z,70.68
2017-09-05T00:06:29.886Z,72.49
2017-09-05T00:08:56.767Z,72.89
2017-09-05T00:14:38.091Z,72.50
2017-09-05T00:17:13.729Z,70.74
2017-09-05T00:19:44.718Z,75.55
2017-09-05T00:22:13.305Z,74.31
2017-09-05T00:24:40.261Z,71.41
2017-09-05T00:27:07.195Z,70.28
2017-09-05T00:29:34.096Z,70.80
2017-09-05T00:32:00.965Z,73.69
2017-09-05T00:34:27.854Z,72.13
2017-09-05T00:36:54.692Z,73.29
2017-09-05T00:39:21.544Z,75.75
2017-09-05T00:41:48.474Z,72.50
2017-09-05T00:44:15.374Z,70.76
2017-09-05T00:46:42.251Z,71.59
2017-09-05T00:49:09.116Z,74.68
2017-09-05T00:51:35.984Z,75.40
2017-09-05T00:54:02.857Z,73.93
2017-09-05T00:56:29.682Z,76.67
2017-09-05T00:58:56.536Z,72.64
2017-09-05T01:01:23.469Z,75.54
2017-09-05T01:03:50.304Z,72.89
2017-09-05T01:06:17.249Z,75.63
2017-09-05T01:08:44.130Z,74.50
2017-09-05T01:11:11.022Z,77.29
2017-09-05T01:13:38.021Z,78.05
2017-09-05T01:16:04.872Z,73.66
2017-09-05T01:18:31.759Z,72.52
2017-09-05T01:20:58.660Z,73.56
2017-09-05T01:23:25.589Z,71.84
2017-09-05T01:25:52.437Z,73.14
2017-09-05T01:28:19.268Z,73.17
2017-09-05T01:30:46.176Z,75.48
2017-09-05T01:33:13.052Z,74.43
2017-09-05T01:35:39.904Z,71.96
2017-09-05T01:38:06.760Z,71.64
2017-09-05T01:40:33.610Z,72.21
2017-09-05T01:43:00.442Z,72.38
2017-09-05T01:45:27.293Z,73.88
2017-09-05T01:47:54.146Z,74.12
2017-09-05T01:50:20.998Z,73.32
2017-09-05T01:52:47.851Z,74.59
2017-09-05T01:55:14.692Z,71.95
2017-09-05T01:57:41.513Z,76.41
2017-09-05T02:00:08.336Z,77.72
2017-09-05T02:02:35.188Z,73.71
2017-09-05T02:05:02.028Z,74.62
2017-09-05T02:07:28.927Z,78.03
2017-09-05T02:09:55.795Z,78.62
2017-09-05T02:12:22.694Z,76.97
2017-09-05T02:14:49.527Z,76.82
2017-09-05T02:17:16.373Z,74.32
2017-09-05T02:19:43.238Z,74.93
2017-09-05T02:22:10.087Z,74.73
2017-09-05T02:24:36.911Z,76.27
2017-09-05T02:27:03.724Z,76.31
2017-09-05T02:29:30.584Z,76.54
2017-09-05T02:31:57.409Z,75.80
2017-09-05T02:34:24.264Z,77.45
2017-09-05T02:36:51.100Z,74.54
2017-09-05T02:39:17.987Z,76.41
2017-09-05T02:41:44.838Z,73.62
2017-09-05T02:44:11.643Z,73.42
2017-09-05T02:46:38.460Z,77.88
2017-09-05T02:49:05.309Z,78.07
2017-09-05T02:51:32.157Z,79.33
2017-09-05T02:53:59.039Z,79.76
2017-09-05T02:56:25.884Z,80.24
2017-09-05T02:58:52.726Z,77.63
2017-09-05T03:01:19.573Z,78.01
2017-09-05T03:03:46.435Z,73.88
2017-09-05T03:06:13.263Z,75.38
2017-09-05T03:08:40.101Z,73.51
2017-09-05T03:11:06.961Z,74.41
2017-09-05T03:13:33.794Z,76.32
2017-09-05T03:16:00.643Z,76.12
2017-09-05T03:18:27.533Z,78.59
2017-09-05T03:20:54.364Z,75.80
2017-09-05T03:23:21.202Z,74.85
2017-09-05T03:25:48.047Z,74.43
2017-09-05T03:28:14.867Z,73.82
2017-09-05T03:30:41.777Z,73.77
2017-09-05T03:33:08.595Z,73.60
2017-09-05T03:35:35.434Z,74.01
2017-09-05T03:38:02.346Z,73.85
2017-09-05T03:40:29.167Z,73.67
2017-09-05T03:42:56.019Z,75.95
2017-09-05T03:45:22.855Z,74.14
2017-09-05T03:47:49.681Z,77.51
2017-09-05T03:50:16.506Z,81.04
2017-09-05T03:52:43.357Z,81.57
2017-09-05T03:55:10.199Z,78.39
2017-09-05T03:57:37.045Z,75.28
2017-09-05T04:00:03.895Z,78.73
2017-09-05T04:02:30.729Z,78.80
2017-09-05T04:04:57.575Z,80.83
2017-09-05T04:07:24.430Z,79.64
2017-09-05T04:09:51.265Z,80.63
2017-09-05T04:12:18.133Z,77.04
2017-09-05T04:14:44.973Z,77.20
2017-09-05T04:17:11.788Z,80.65
2017-09-05T04:19:38.646Z,76.20
2017-09-05T04:22:05.445Z,75.73
2017-09-05T04:24:32.306Z,77.20
2017-09-05T04:26:59.132Z,79.25
2017-09-05T04:29:25.971Z,75.98
2017-09-05T04:31:52.840Z,79.92
2017-09-05T04:34:19.723Z,77.29
2017-09-05T04:36:46.546Z,79.20
2017-09-05T04:39:13.449Z,77.54
2017-09-05T04:41:40.307Z,75.77
2017-09-05T04:44:07.134Z,78.50
2017-09-05T04:46:33.972Z,79.38
2017-09-05T04:49:00.798Z,80.20
2017-09-05T04:51:27.697Z,76.77
2017-09-05T04:53:54.520Z,80.56
2017-09-05T04:56:21.377Z,81.67
2017-09-05T04:58:48.202Z,77.79
2017-09-05T05:01:15.057Z,76.43
2017-09-05T05:03:41.892Z,76.25
2017-09-05T05:06:08.703Z,76.47
2017-09-05T05:08:35.499Z,76.91
2017-09-05T05:11:02.364Z,77.81
2017-09-05T05:13:29.195Z,76.51
2017-09-05T05:15:56.032Z,80.36
2017-09-05T05:18:22.848Z,77.57
2017-09-05T05:20:49.680Z,79.25
2017-09-05T05:23:16.530Z,76.18
2017-09-05T05:25:43.332Z,75.99
2017-09-05T05:28:10.178Z,76.29
2017-09-05T05:30:37.009Z,75.96
2017-09-05T05:33:03.890Z,77.19
2017-09-05T05:35:30.782Z,76.18
2017-09-05T05:37:57.866Z,75.84
2017-09-05T05:40:24.708Z,79.41
2017-09-05T05:42:51.591Z,75.94
2017-09-05T05:45:18.441Z,75.79
2017-09-05T05:47:45.304Z,78.30
2017-09-05T05:50:12.119Z,79.82
2017-09-05T05:52:38.951Z,80.41
2017-09-05T05:55:05.826Z,82.65
2017-09-05T05:57:32.647Z,80.96
2017-09-05T05:59:59.460Z,79.20
2017-09-05T06:02:26.306Z,79.94
2017-09-05T06:04:53.128Z,77.01
2017-09-05T06:07:19.947Z,75.96
2017-09-05T06:09:46.834Z,77.39
2017-09-05T06:12:13.665Z,76.36
2017-09-05T06:14:40.506Z,76.75
2017-09-05T06:17:07.346Z,75.68
2017-09-05T06:19:34.207Z,77.17
2017-09-05T06:22:01.040Z,75.79
2017-09-05T06:24:27.898Z,80.44
2017-09-05T06:26:54.707Z,81.39
2017-09-05T06:29:21.617Z,80.16
2017-09-05T06:31:48.445Z,76.46
2017-09-05T06:34:15.285Z,76.94
2017-09-05T06:36:42.120Z,77.80
2017-09-05T06:39:09.002Z,75.46
2017-09-05T06:41:35.863Z,75.81
2017-09-05T06:44:02.718Z,75.71
2017-09-05T06:46:29.524Z,75.89
2017-09-05T06:48:56.324Z,78.60
2017-09-05T06:51:23.132Z,76.40
2017-09-05T06:53:49.976Z,75.80
2017-09-05T06:56:16.789Z,75.29
2017-09-05T06:58:43.619Z,75.14
2017-09-05T07:01:10.648Z,76.04
2017-09-05T07:03:37.611Z,76.19
2017-09-05T07:06:04.575Z,75.54
2017-09-05T07:08:31.514Z,78.15
2017-09-05T07:10:58.477Z,75.29
2017-09-05T07:13:25.407Z,77.15
2017-09-05T07:15:52.313Z,76.31
2017-09-05T07:18:19.245Z,75.32
2017-09-05T07:20:46.210Z,77.06
2017-09-05T07:23:14.046Z,75.31
2017-09-05T07:25:40.955Z,74.86
2017-09-05T07:28:07.940Z,75.09
2017-09-05T07:30:34.865Z,75.05
2017-09-05T07:33:01.728Z,77.92
2017-09-05T07:35:28.631Z,76.14
2017-09-05T07:37:55.509Z,76.01
2017-09-05T07:40:22.461Z,75.01
2017-09-05T07:42:49.623Z,75.68
2017-09-05T07:45:20.604Z,75.32
2017-09-05T07:47:47.508Z,75.14
2017-09-05T07:50:16.254Z,74.33
2017-09-05T07:52:43.183Z,74.41
2017-09-05T07:55:10.875Z,74.16
2017-09-05T07:57:38.174Z,75.45
2017-09-05T08:00:05.166Z,74.20
2017-09-05T08:02:31.997Z,74.09
2017-09-05T08:04:58.845Z,73.96
2017-09-05T08:07:25.748Z,73.26
2017-09-05T08:09:52.547Z,73.01
2017-09-05T08:12:19.390Z,73.84
2017-09-05T08:14:46.245Z,73.08
2017-09-05T08:17:13.072Z,73.31
2017-09-05T08:19:39.926Z,73.33
2017-09-05T08:22:06.766Z,72.26
2017-09-05T08:24:33.595Z,72.37
2017-09-05T08:27:00.490Z,72.62
2017-09-05T08:29:27.344Z,70.86
2017-09-05T08:31:54.193Z,71.74
2017-09-05T08:34:21.036Z,72.53
2017-09-05T08:36:47.907Z,70.72
2017-09-05T08:39:14.745Z,70.34
2017-09-05T08:41:41.594Z,70.05
2017-09-05T08:44:08.401Z,69.69
2017-09-05T08:46:35.264Z,69.48
2017-09-05T08:49:02.107Z,69.60
2017-09-05T08:51:28.942Z,69.10
2017-09-05T08:53:55.814Z,68.79
2017-09-05T08:56:22.654Z,68.58
2017-09-05T08:58:49.506Z,68.71
2017-09-05T09:01:16.376Z,69.29
2017-09-05T09:03:43.212Z,67.98
2017-09-05T09:06:10.071Z,68.45
2017-09-05T09:08:36.914Z,67.48
2017-09-05T09:11:03.748Z,67.00
2017-09-05T09:13:30.599Z,67.29
2017-09-05T09:15:57.501Z,66.49
2017-09-05T09:18:24.380Z,66.76
2017-09-05T09:20:51.242Z,66.89
2017-09-05T09:23:18.084Z,65.97
2017-09-05T09:25:44.934Z,65.62
2017-09-05T09:28:11.803Z,64.29
2017-09-05T09:30:38.645Z,64.99
2017-09-05T09:33:05.526Z,63.61
2017-09-05T09:35:32.390Z,63.22
2017-09-05T09:37:59.254Z,64.29
2017-09-05T09:40:26.088Z,62.45
2017-09-05T09:42:52.997Z,61.78
2017-09-05T09:45:19.815Z,63.16
2017-09-05T09:47:46.725Z,62.00
2017-09-05T09:50:13.601Z,62.95
2017-09-05T09:52:40.455Z,62.50
2017-09-05T09:55:07.316Z,61.38
2017-09-05T09:57:34.953Z,61.59
2017-09-05T10:00:01.803Z,60.46
2017-09-05T10:02:28.645Z,59.53
2017-09-05T10:04:55.522Z,60.10
2017-09-05T10:07:22.369Z,60.59
2017-09-05T10:09:49.238Z,59.67
2017-09-05T10:12:16.073Z,58.11
2017-09-05T10:14:42.938Z,58.75
2017-09-05T10:17:09.787Z,58.85
2017-09-05T10:19:36.617Z,58.79
2017-09-05T10:22:03.495Z,60.10
2017-09-05T10:24:30.412Z,60.23
2017-09-05T10:26:57.231Z,59.18
2017-09-05T10:29:24.085Z,57.58
2017-09-05T10:31:51.100Z,57.03
2017-09-05T10:34:17.962Z,56.93
2017-09-05T10:36:44.815Z,57.71
2017-09-05T10:39:11.628Z,57.13
2017-09-05T10:41:38.509Z,56.27
2017-09-05T10:44:05.347Z,57.74
2017-09-05T10:46:32.172Z,56.41
2017-09-05T10:48:59.020Z,57.26
2017-09-05T10:51:25.884Z,56.36
2017-09-05T10:53:52.716Z,56.50
2017-09-05T10:56:19.570Z,57.43
2017-09-05T10:58:46.418Z,55.78
2017-09-05T11:01:13.299Z,56.25
2017-09-05T11:03:40.203Z,56.33
2017-09-05T11:06:07.067Z,55.21
2017-09-05T11:08:33.918Z,56.21
2017-09-05T11:11:00.760Z,54.60
2017-09-05T11:13:27.618Z,54.92
2017-09-05T11:15:54.434Z,54.75
2017-09-05T11:18:21.274Z,55.42
2017-09-05T11:20:48.124Z,53.58
2017-09-05T11:23:14.956Z,54.24
2017-09-05T11:25:41.801Z,53.98
2017-09-05T11:28:08.661Z,53.98
2017-09-05T11:30:35.494Z,52.99
2017-09-05T11:33:02.339Z,53.28
2017-09-05T11:35:29.229Z,52.84
2017-09-05T11:37:56.115Z,51.96
2017-09-05T11:40:22.940Z,52.02
2017-09-05T11:42:49.886Z,50.78
2017-09-05T11:45:16.732Z,51.10
2017-09-05T11:47:43.612Z,50.53
2017-09-05T11:50:10.459Z,51.80
2017-09-05T11:52:37.330Z,52.15
2017-09-05T11:55:04.236Z,50.81
2017-09-05T11:57:31.148Z,49.32
2017-09-05T11:59:57.994Z,50.59
2017-09-05T12:02:24.872Z,49.65
2017-09-05T12:04:51.742Z,48.62
2017-09-05T12:07:18.622Z,50.25
2017-09-05T12:09:45.562Z,51.29
2017-09-05T12:12:12.414Z,50.69
2017-09-05T12:14:39.268Z,50.36
2017-09-05T12:17:06.191Z,50.38
2017-09-05T12:19:33.115Z,51.00
2017-09-05T12:22:00.016Z,51.37
2017-09-05T12:24:26.887Z,51.85
2017-09-05T12:26:53.786Z,52.03
2017-09-05T12:29:20.628Z,52.11
2017-09-05T12:31:47.542Z,52.21
2017-09-05T12:34:14.391Z,51.44
2017-09-05T12:36:41.321Z,51.40
2017-09-05T12:39:08.233Z,52.36
2017-09-05T12:41:35.178Z,53.33
2017-09-05T12:44:02.085Z,52.88
2017-09-05T12:46:28.940Z,53.64
2017-09-05T12:48:55.780Z,53.25
2017-09-05T12:51:22.697Z,53.10
2017-09-05T12:53:49.579Z,53.36
2017-09-05T12:56:16.437Z,54.25
2017-09-05T12:58:43.275Z,54.03
2017-09-05T13:01:10.132Z,53.67
2017-09-05T13:03:37.045Z,53.40
2017-09-05T13:06:03.973Z,54.22
2017-09-05T13:08:30.815Z,54.75
2017-09-05T13:10:57.736Z,56.31
2017-09-05T13:13:24.605Z,56.00
2017-09-05T13:15:51.498Z,55.57
2017-09-05T13:18:18.409Z,55.45
2017-09-05T13:20:45.284Z,57.18
2017-09-05T13:23:12.172Z,57.03
2017-09-05T13:25:39.044Z,56.18
2017-09-05T13:28:06.775Z,55.84
2017-09-05T13:30:33.732Z,56.64
2017-09-05T13:33:00.696Z,55.97
2017-09-05T13:35:27.657Z,56.29
2017-09-05T13:37:54.644Z,56.40
2017-09-05T13:40:21.601Z,56.12
2017-09-05T13:42:48.495Z,56.36
2017-09-05T13:45:15.492Z,57.84
2017-09-05T13:47:42.555Z,56.93
2017-09-05T13:50:09.571Z,56.67
2017-09-05T13:52:36.559Z,56.39
2017-09-05T13:55:03.481Z,56.36
2017-09-05T13:57:30.481Z,57.03
2017-09-05T13:59:57.364Z,57.58
2017-09-05T14:02:24.347Z,57.29
2017-09-05T14:04:51.183Z,57.20
2017-09-05T14:07:18.032Z,58.16
2017-09-05T14:09:44.907Z,59.39
2017-09-05T14:12:12.938Z,59.64
2017-09-05T14:14:50.204Z,60.13
2017-09-05T14:17:20.009Z,60.12
2017-09-05T14:19:46.869Z,59.22
2017-09-05T14:22:13.732Z,60.57
2017-09-05T14:24:40.577Z,60.05
2017-09-05T14:27:07.452Z,60.67
2017-09-05T14:29:34.320Z,60.38
2017-09-05T14:32:01.163Z,60.50
2017-09-05T14:34:28.008Z,61.16
2017-09-05T14:36:54.879Z,62.24
2017-09-05T14:39:21.756Z,62.82
2017-09-05T14:41:48.653Z,62.91
2017-09-05T14:44:15.501Z,63.19
2017-09-05T14:46:42.358Z,63.30
2017-09-05T14:49:09.208Z,64.37
2017-09-05T14:51:36.075Z,62.21
2017-09-05T14:54:02.922Z,61.32
2017-09-05T14:56:29.766Z,59.94
2017-09-05T14:58:56.635Z,59.56
2017-09-05T15:01:23.491Z,58.84
2017-09-05T15:03:50.343Z,58.90
2017-09-05T15:06:17.203Z,58.53
2017-09-05T15:08:44.049Z,59.04
2017-09-05T15:11:10.910Z,58.71
2017-09-05T15:13:37.791Z,58.47
2017-09-05T15:16:04.663Z,58.26
2017-09-05T15:18:31.515Z,57.83
2017-09-05T15:20:58.386Z,59.83
2017-09-05T15:23:25.230Z,58.71
2017-09-05T15:25:52.062Z,57.54
2017-09-05T15:28:18.908Z,57.43
2017-09-05T15:30:45.785Z,58.17
2017-09-05T15:33:12.635Z,57.44
2017-09-05T15:35:39.478Z,58.18
2017-09-05T15:38:06.328Z,57.38
2017-09-05T15:40:33.190Z,60.19
2017-09-05T15:43:00.089Z,59.82
2017-09-05T15:45:26.945Z,58.32
2017-09-05T15:47:53.807Z,58.43
2017-09-05T15:50:20.650Z,58.66
2017-09-05T15:52:47.541Z,58.09
2017-09-05T15:55:14.472Z,58.12
2017-09-05T15:57:41.336Z,57.84
2017-09-05T16:00:08.210Z,59.01
2017-09-05T16:02:35.336Z,61.27
2017-09-05T16:05:02.218Z,59.62
2017-09-05T16:07:29.116Z,59.93
2017-09-05T16:09:55.982Z,59.90
2017-09-05T16:12:22.870Z,59.44
2017-09-05T16:14:49.721Z,58.79
2017-09-05T16:17:16.554Z,59.01
2017-09-05T16:19:43.399Z,58.60
2017-09-05T16:22:10.264Z,59.02
2017-09-05T16:24:37.122Z,59.24
2017-09-05T16:27:03.991Z,60.32
2017-09-05T16:29:31.111Z,62.21
2017-09-05T16:31:58.004Z,61.16
2017-09-05T16:34:24.885Z,60.23
2017-09-05T16:36:51.703Z,60.85
2017-09-05T16:39:18.547Z,62.05
2017-09-05T16:41:45.405Z,62.25
2017-09-05T16:44:12.257Z,61.81
2017-09-05T16:46:39.122Z,61.75
2017-09-05T16:49:05.992Z,61.26
2017-09-05T16:51:32.936Z,62.06
2017-09-05T16:53:59.851Z,61.66
2017-09-05T16:56:26.727Z,60.29
2017-09-05T16:58:53.574Z,61.02
2017-09-05T17:01:20.436Z,61.37
2017-09-05T17:03:47.311Z,61.56
2017-09-05T17:06:14.245Z,60.73
2017-09-05T17:08:41.115Z,60.57
2017-09-05T17:11:08.005Z,60.33
2017-09-05T17:13:34.836Z,61.66
2017-09-05T17:16:01.679Z,61.61
2017-09-05T17:18:28.534Z,63.79
2017-09-05T17:20:55.388Z,62.65
2017-09-05T17:23:22.200Z,62.73
2017-09-05T17:25:49.088Z,62.75
2017-09-05T17:28:15.969Z,63.51
2017-09-05T17:30:42.951Z,62.51
2017-09-05T17:33:09.800Z,62.54
2017-09-05T17:35:36.661Z,62.82
2017-09-05T17:38:03.609Z,62.89
2017-09-05T17:40:30.468Z,62.59
2017-09-05T17:42:57.292Z,62.69
2017-09-05T17:45:24.152Z,64.81
2017-09-05T17:47:51.038Z,62.96
2017-09-05T17:50:17.934Z,63.83
2017-09-05T17:52:44.898Z,64.17
2017-09-05T17:55:11.946Z,65.22
2017-09-05T17:57:38.843Z,64.37
2017-09-05T18:00:05.717Z,64.58
2017-09-05T18:02:32.995Z,63.88
2017-09-05T18:04:59.902Z,65.38
2017-09-05T18:07:27.277Z,66.42
2017-09-05T18:09:54.301Z,67.49
2017-09-05T18:12:21.364Z,66.98
2017-09-05T18:14:48.317Z,64.95
2017-09-05T18:17:15.804Z,68.79
2017-09-05T18:19:44.381Z,69.15
2017-09-05T18:22:11.322Z,67.03
2017-09-05T18:24:38.906Z,66.09
2017-09-05T18:27:05.876Z,65.80
2017-09-05T18:29:33.215Z,65.52
2017-09-05T18:32:00.462Z,69.17
2017-09-05T18:34:27.638Z,71.99
2017-09-05T18:36:56.014Z,67.03
2017-09-05T18:39:23.054Z,70.81
2017-09-05T18:41:49.918Z,76.15
2017-09-05T18:44:17.926Z,73.16
2017-09-05T18:46:45.457Z,71.18
2017-09-05T18:49:12.539Z,71.01
2017-09-05T18:51:41.163Z,75.04
2017-09-05T18:54:09.921Z,76.36
2017-09-05T18:56:38.660Z,79.69
2017-09-05T18:59:07.438Z,79.04
2017-09-05T19:01:36.381Z,75.22
2017-09-05T19:04:05.107Z,73.73
2017-09-05T19:06:33.509Z,76.91
2017-09-05T19:09:02.344Z,73.90
2017-09-05T19:11:30.982Z,74.34
2017-09-05T19:13:59.881Z,79.22
2017-09-05T19:16:28.827Z,78.73
2017-09-05T19:18:57.603Z,75.64
2017-09-05T19:21:26.482Z,74.72
2017-09-05T19:23:55.354Z,77.93
2017-09-05T19:26:23.912Z,76.94
2017-09-05T19:28:52.924Z,81.58
2017-09-05T19:31:21.767Z,82.34
2017-09-05T19:33:49.954Z,75.89
2017-09-05T19:36:18.247Z,80.45
2017-09-05T19:38:46.157Z,75.62
2017-09-05T19:41:15.515Z,74.80
2017-09-05T19:43:42.912Z,74.97
2017-09-05T19:46:11.447Z,75.35
2017-09-05T19:48:40.271Z,82.49
2017-09-05T19:51:08.974Z,81.75
2017-09-05T19:53:37.724Z,76.65
2017-09-05T19:56:06.352Z,80.91
2017-09-05T19:58:35.194Z,83.93
2017-09-05T20:01:04.920Z,83.25
2017-09-05T20:03:33.667Z,84.74
2017-09-05T20:06:02.560Z,83.82
2017-09-05T20:08:31.495Z,86.88
2017-09-05T20:10:58.878Z,82.21
2017-09-05T20:13:27.342Z,82.08
2017-09-05T20:15:55.084Z,80.46
2017-09-05T20:18:23.747Z,79.19
2017-09-05T20:20:51.689Z,81.01
2017-09-05T20:23:21.057Z,80.25
2017-09-05T20:25:49.796Z,79.24
2017-09-05T20:28:18.797Z,79.28
2017-09-05T20:30:47.624Z,79.35
2017-09-05T20:33:16.397Z,77.70
2017-09-05T20:35:45.062Z,77.74
2017-09-05T20:38:13.797Z,77.67
2017-09-05T20:40:41.420Z,76.79
2017-09-05T20:43:08.367Z,76.98
2017-09-05T20:45:36.061Z,81.46
2017-09-05T20:48:02.936Z,82.51
2017-09-05T20:50:29.998Z,78.55
2017-09-05T20:52:56.907Z,77.78
2017-09-05T20:55:23.751Z,79.04
2017-09-05T20:57:51.790Z,78.00
2017-09-05T21:00:19.118Z,77.49
2017-09-05T21:02:45.978Z,77.86
2017-09-05T21:05:12.829Z,78.18
2017-09-05T21:07:39.749Z,79.43
2017-09-05T21:10:06.679Z,77.77
2017-09-05T21:12:34.095Z,78.04
2017-09-05T21:15:01.026Z,82.20
2017-09-05T21:17:28.989Z,80.59
2017-09-05T21:19:56.260Z,78.61
2017-09-05T21:22:23.115Z,80.68
2017-09-05T21:24:51.300Z,80.73
2017-09-05T21:27:18.377Z,82.32
2017-09-05T21:29:45.292Z,78.66
2017-09-05T21:32:12.692Z,81.00
2017-09-05T21:34:39.521Z,81.24
2017-09-05T21:37:06.370Z,78.42
2017-09-05T21:39:33.159Z,78.54
2017-09-05T21:42:00.026Z,80.40
2017-09-05T21:44:26.932Z,79.17
2017-09-05T21:46:53.902Z,79.30
2017-09-05T21:49:20.746Z,78.06
2017-09-05T21:51:47.623Z,77.81
2017-09-05T21:54:14.442Z,77.64
2017-09-05T21:56:41.304Z,79.98
2017-09-05T21:59:08.178Z,79.43
2017-09-05T22:01:35.001Z,78.83
2017-09-05T22:04:01.860Z,79.82
2017-09-05T22:06:28.699Z,79.55
2017-09-05T22:08:55.606Z,81.26
2017-09-05T22:11:22.431Z,80.72
2017-09-05T22:13:55.425Z,80.68
2017-09-05T22:16:28.329Z,81.84
2017-09-05T22:19:01.136Z,79.05
2017-09-05T22:21:28.055Z,78.93
2017-09-05T22:23:54.896Z,78.96
2017-09-05T22:26:27.702Z,80.25
2017-09-05T22:29:00.686Z,78.86
2017-09-05T22:31:27.527Z,77.58
2017-09-05T22:33:54.351Z,78.69
2017-09-05T22:36:21.191Z,78.87
2017-09-05T22:38:48.068Z,78.19
2017-09-05T22:41:14.869Z,78.71
2017-09-05T22:43:41.683Z,77.79
2017-09-05T22:46:08.522Z,79.02
2017-09-05T22:48:35.336Z,77.38
2017-09-05T22:51:02.175Z,76.76
2017-09-05T22:53:29.012Z,79.44
2017-09-05T22:55:55.844Z,77.33
2017-09-05T22:58:22.666Z,77.86
2017-09-05T23:00:49.552Z,78.84
2017-09-05T23:03:16.394Z,78.45
2017-09-05T23:05:43.259Z,77.63
2017-09-05T23:08:10.893Z,79.26
2017-09-05T23:10:37.767Z,78.25
2017-09-05T23:13:04.689Z,77.65
2017-09-05T23:15:31.488Z,77.27
2017-09-05T23:17:58.345Z,78.25
2017-09-05T23:20:25.167Z,77.04
2017-09-05T23:22:51.990Z,76.80
2017-09-05T23:25:18.781Z,77.42
2017-09-05T23:27:45.631Z,77.15
2017-09-05T23:30:12.439Z,77.49
2017-09-05T23:32:39.253Z,76.53
2017-09-05T23:35:06.077Z,78.40
2017-09-05T23:37:32.916Z,78.37
2017-09-05T23:39:59.760Z,76.52
2017-09-05T23:42:26.640Z,76.84
2017-09-05T23:44:53.456Z,76.35
2017-09-05T23:47:20.273Z,77.80
2017-09-05T23:49:47.239Z,76.21
2017-09-05T23:52:14.063Z,77.57
2017-09-05T23:54:41.005Z,77.56
2017-09-05T23:57:07.842Z,76.43
2017-09-05T23:59:34.669Z,76.96
